Shongaloo, Louisiana
Current Conditions -  °F | °C
As of 3:55 AM on Saturday 29 Nov 2014 (Local Time) from KMNE Reporting Station
Overcast Overcast  
Wind Chill: 59°   Ceiling: 1200
Heat Index: 59°   Visibility: 10mi
Dew Point: 55°   Wind: 9mph
Humidity: 88%   Direction: 180°S
Pressure: 30.07"   Gusts: NA
Location:  32.94°N, 93.3°W
Report Text: KMNE 290955Z AUTO 18008KT 10SM OVC012 15/13 A3007 RMK AO2
Loading
Personal Weather Stations






























Interactive Weather Map New forecast layout! Learn more

10-Day Weather Forecast

Advertisements
Track Severe Weather on mobile